Aegean Tiffany — SVAE9 — position and weather

sailwx.info

Track history (hours):
 
Tides and Currents Weather Stations Pressure Air Temp Water Temp Dewpoint Dewpoint Depression Visibility Wind Speed Wind Dir Waves Ship Positions

Aegean Tiffany

Last reported at 2017-Mar-21 23:23 UTC. Time now 2017-Mar-27 00:47 UTC.
Position N 37°56' E 023°13'.

Length 80 m; draft 5.5 m.

Type: Tanker. MMSI: 240870000.

Date/timePositionNaut miles runAvg speedWind from/ knotsBaromVisibWave heightAir tempDewpointWater temp
2017-Mar-21 23:23N 37°56' E 023°13'7 7.9
2017-Mar-21 22:33N 37°57' E 023°21'6 5.9
2017-Mar-21 21:33N 38°00' E 023°27'4 0.2
2017-Mar-20 17:33N 38°02' E 023°32'1 1.1
2017-Mar-20 16:33N 38°02' E 023°31'0 0.0
2017-Mar-20 15:33N 38°02' E 023°31'0 0.0
2017-Mar-20 14:34N 38°02' E 023°31'1 1.0
2017-Mar-20 13:33N 38°02' E 023°32'0 0.0
2017-Mar-20 12:33N 38°02' E 023°32'0 0.0
2017-Mar-20 11:33N 38°02' E 023°32'0 0.0
2017-Mar-20 10:33N 38°02' E 023°32'1 1.0
2017-Mar-20 09:33N 38°02' E 023°33'2 1.8
2017-Mar-20 08:33N 38°02' E 023°35'0 0.0
2017-Mar-20 06:33N 38°02' E 023°35'0 0.4
2017-Mar-20 05:32N 38°02' E 023°36'0 0.0
2017-Mar-20 04:32N 38°02' E 023°36'0 0.0
2017-Mar-20 03:30N 38°02' E 023°36'0 0.0
2017-Mar-20 02:20N 38°02' E 023°36'0 0.0
2017-Mar-20 01:33N 38°02' E 023°36'0 0.0
2017-Mar-20 00:29N 38°02' E 023°36'0 0.0
2017-Mar-19 23:33N 38°02' E 023°36'0 0.0
2017-Mar-19 22:33N 38°02' E 023°36'1 0.5
2017-Mar-19 21:33N 38°02' E 023°35'3 3.4
2017-Mar-19 20:33N 38°02' E 023°31'0 0.0
2017-Mar-19 19:33N 38°02' E 023°31'0 0.0
2017-Mar-19 18:33N 38°02' E 023°31'0 0.0
2017-Mar-19 17:33N 38°02' E 023°31'0 0.0
2017-Mar-19 16:33N 38°02' E 023°31'3 3.0
2017-Mar-19 15:33N 38°01' E 023°34'4 1.9
2017-Mar-19 13:11N 37°57' E 023°37'0 0.0
2017-Mar-19 11:18N 37°57' E 023°37'0 0.1
2017-Mar-19 09:08N 37°57' E 023°37'4 6.7
2017-Mar-19 08:33N 37°59' E 023°33'3 3.1
2017-Mar-19 07:33N 38°02' E 023°32'1 1.0
2017-Mar-19 06:33N 38°02' E 023°31'6 6.3
2017-Mar-19 05:33N 37°58' E 023°25'8 7.9
2017-Mar-19 04:33N 37°56' E 023°15'9 8.5
2017-Mar-19 03:33N 37°54' E 023°04'  
2017-Mar-11 23:33N 37°54' E 023°04'  
Track history (hours):
 
Tides and Currents Weather Stations Pressure Air Temp Water Temp Dewpoint Dewpoint Depression Visibility Wind Speed Wind Dir Waves Ship Positions

Aegean Tiffany

Last reported at 2017-Mar-21 23:23 UTC. Time now 2017-Mar-27 00:47 UTC.
Position N 37°56' E 023°13'.

Length 80 m; draft 5.5 m.

Type: Tanker. MMSI: 240870000.

Date/timePositionNaut miles runAvg speedWind from/ knotsBaromVisibWave heightAir tempDewpointWater temp
2017-Mar-21 23:23N 37°56' E 023°13'7 7.9
2017-Mar-21 22:33N 37°57' E 023°21'6 5.9
2017-Mar-21 21:33N 38°00' E 023°27'4 0.2
2017-Mar-20 17:33N 38°02' E 023°32'1 1.1
2017-Mar-20 16:33N 38°02' E 023°31'0 0.0
2017-Mar-20 15:33N 38°02' E 023°31'0 0.0
2017-Mar-20 14:34N 38°02' E 023°31'1 1.0
2017-Mar-20 13:33N 38°02' E 023°32'0 0.0
2017-Mar-20 12:33N 38°02' E 023°32'0 0.0
2017-Mar-20 11:33N 38°02' E 023°32'0 0.0
2017-Mar-20 10:33N 38°02' E 023°32'1 1.0
2017-Mar-20 09:33N 38°02' E 023°33'2 1.8
2017-Mar-20 08:33N 38°02' E 023°35'0 0.0
2017-Mar-20 06:33N 38°02' E 023°35'0 0.4
2017-Mar-20 05:32N 38°02' E 023°36'0 0.0
2017-Mar-20 04:32N 38°02' E 023°36'0 0.0
2017-Mar-20 03:30N 38°02' E 023°36'0 0.0
2017-Mar-20 02:20N 38°02' E 023°36'0 0.0
2017-Mar-20 01:33N 38°02' E 023°36'0 0.0
2017-Mar-20 00:29N 38°02' E 023°36'0 0.0
2017-Mar-19 23:33N 38°02' E 023°36'0 0.0
2017-Mar-19 22:33N 38°02' E 023°36'1 0.5
2017-Mar-19 21:33N 38°02' E 023°35'3 3.4
2017-Mar-19 20:33N 38°02' E 023°31'0 0.0
2017-Mar-19 19:33N 38°02' E 023°31'0 0.0
2017-Mar-19 18:33N 38°02' E 023°31'0 0.0
2017-Mar-19 17:33N 38°02' E 023°31'0 0.0
2017-Mar-19 16:33N 38°02' E 023°31'3 3.0
2017-Mar-19 15:33N 38°01' E 023°34'4 1.9
2017-Mar-19 13:11N 37°57' E 023°37'0 0.0
2017-Mar-19 11:18N 37°57' E 023°37'0 0.1
2017-Mar-19 09:08N 37°57' E 023°37'4 6.7
2017-Mar-19 08:33N 37°59' E 023°33'3 3.1
2017-Mar-19 07:33N 38°02' E 023°32'1 1.0
2017-Mar-19 06:33N 38°02' E 023°31'6 6.3
2017-Mar-19 05:33N 37°58' E 023°25'8 7.9
2017-Mar-19 04:33N 37°56' E 023°15'9 8.5
2017-Mar-19 03:33N 37°54' E 023°04'  
2017-Mar-11 23:33N 37°54' E 023°04'  

Dump ship's entire track history